createdAt,value
2022-11-21T00:01:24.121Z,96034.00
2022-11-21T00:03:50.929Z,96039.22
2022-11-21T00:06:18.269Z,96024.09
2022-11-21T00:08:44.984Z,96030.47
2022-11-21T00:11:13.025Z,96034.72
2022-11-21T00:13:39.517Z,96031.31
2022-11-21T00:16:07.709Z,96030.56
2022-11-21T00:18:35.101Z,96033.56
2022-11-21T00:21:10.190Z,96030.81
2022-11-21T00:23:36.519Z,96032.97
2022-11-21T00:26:11.387Z,96018.06
2022-11-21T00:28:38.072Z,96007.66
2022-11-21T00:31:05.833Z,96013.47
2022-11-21T00:33:34.669Z,96004.22
2022-11-21T00:36:07.355Z,96005.88
2022-11-21T00:38:33.679Z,95997.63
2022-11-21T00:41:00.003Z,95995.47
2022-11-21T00:43:26.336Z,95997.72
2022-11-21T00:45:52.729Z,95995.25
2022-11-21T00:48:19.066Z,96006.84
2022-11-21T00:50:49.695Z,96007.56
2022-11-21T00:53:16.032Z,96007.56
2022-11-21T00:55:42.429Z,96005.41
2022-11-21T00:58:08.753Z,96013.91
2022-11-21T01:00:35.144Z,96010.38
2022-11-21T01:03:01.629Z,96010.38
2022-11-21T01:05:27.957Z,96001.28
2022-11-21T01:07:54.289Z,96005.28
2022-11-21T01:10:20.649Z,95991.69
2022-11-21T01:12:46.942Z,95994.28
2022-11-21T01:15:13.409Z,95994.88
2022-11-21T01:17:39.714Z,95988.63
2022-11-21T01:20:07.016Z,96004.22
2022-11-21T01:22:33.459Z,95985.78
2022-11-21T01:24:59.778Z,95977.13
2022-11-21T01:27:26.150Z,95977.13
2022-11-21T01:29:52.490Z,95976.56
2022-11-21T01:32:18.846Z,95958.81
2022-11-21T01:34:45.146Z,95953.53
2022-11-21T01:37:11.469Z,95933.31
2022-11-21T01:39:37.824Z,95928.09
2022-11-21T01:42:04.271Z,95943.09
2022-11-21T01:44:52.099Z,95938.69
2022-11-21T01:47:18.981Z,95932.47
2022-11-21T01:49:46.986Z,95913.06
2022-11-21T01:52:24.814Z,95897.81
2022-11-21T01:55:05.049Z,95884.59
2022-11-21T01:57:37.055Z,95888.63
2022-11-21T02:00:11.109Z,95896.91
2022-11-21T02:02:41.966Z,95920.75
2022-11-21T02:05:13.350Z,95892.84
2022-11-21T02:07:43.252Z,95888.81
2022-11-21T02:10:10.452Z,95892.59
2022-11-21T02:12:48.059Z,95875.78
2022-11-21T02:15:15.093Z,95880.75
2022-11-21T02:17:41.597Z,95877.44
2022-11-21T02:20:14.629Z,95895.66
2022-11-21T02:22:59.714Z,95857.84
2022-11-21T02:25:29.437Z,95850.38
2022-11-21T02:28:01.323Z,95856.25
2022-11-21T02:30:30.782Z,95866.75
2022-11-21T02:32:58.299Z,95858.59
2022-11-21T02:35:24.940Z,95851.25
2022-11-21T02:37:58.077Z,95838.88
2022-11-21T02:40:29.031Z,95843.38
2022-11-21T02:43:10.612Z,95836.13
2022-11-21T02:45:42.567Z,95833.31
2022-11-21T02:48:09.722Z,95839.31
2022-11-21T02:50:39.020Z,95833.69
2022-11-21T02:53:07.896Z,95830.81
2022-11-21T02:55:34.932Z,95828.69
2022-11-21T02:58:04.831Z,95833.88
2022-11-21T03:00:33.686Z,95856.94
2022-11-21T03:03:00.001Z,95840.53
2022-11-21T03:05:26.488Z,95836.13
2022-11-21T03:07:52.871Z,95825.75
2022-11-21T03:10:19.240Z,95820.63
2022-11-21T03:12:45.614Z,95824.94
2022-11-21T03:15:14.357Z,95830.13
2022-11-21T03:17:41.436Z,95821.06
2022-11-21T03:20:08.673Z,95813.69
2022-11-21T03:22:35.037Z,95786.25
2022-11-21T03:25:01.415Z,95809.75
2022-11-21T03:27:27.730Z,95797.72
2022-11-21T03:29:54.082Z,95812.25
2022-11-21T03:32:20.395Z,95819.84
2022-11-21T03:34:46.887Z,95818.13
2022-11-21T03:37:13.253Z,95807.09
2022-11-21T03:39:39.565Z,95804.97
2022-11-21T03:42:05.884Z,95813.94
2022-11-21T03:44:32.263Z,95796.59
2022-11-21T03:46:58.770Z,95825.56
2022-11-21T03:49:25.314Z,95806.19
2022-11-21T03:51:51.654Z,95807.84
2022-11-21T03:54:18.000Z,95818.94
2022-11-21T03:56:44.309Z,95803.34
2022-11-21T03:59:10.686Z,95813.47
2022-11-21T04:01:37.271Z,95798.41
2022-11-21T04:04:04.861Z,95829.06
2022-11-21T04:06:31.598Z,95797.88
2022-11-21T04:08:58.192Z,95802.84
2022-11-21T04:11:24.552Z,95806.16
2022-11-21T04:13:51.777Z,95805.66
2022-11-21T04:16:18.414Z,95799.03
2022-11-21T04:18:45.211Z,95802.53
2022-11-21T04:21:11.595Z,95794.31
2022-11-21T04:23:37.923Z,95797.13
2022-11-21T04:26:04.406Z,95814.66
2022-11-21T04:28:31.353Z,95790.06
2022-11-21T04:31:09.944Z,95783.91
2022-11-21T04:33:37.701Z,95791.00
2022-11-21T04:36:04.247Z,95794.88
2022-11-21T04:38:30.577Z,95805.66
2022-11-21T04:40:56.896Z,95795.97
2022-11-21T04:43:23.223Z,95787.91
2022-11-21T04:45:49.557Z,95790.38
2022-11-21T04:48:15.862Z,95779.34
2022-11-21T04:50:42.393Z,95791.66
2022-11-21T04:53:08.709Z,95797.81
2022-11-21T04:55:35.047Z,95796.38
2022-11-21T04:58:01.497Z,95785.25
2022-11-21T05:00:28.137Z,95791.53
2022-11-21T05:02:54.474Z,95789.94
2022-11-21T05:05:20.805Z,95784.25
2022-11-21T05:07:47.129Z,95789.00
2022-11-21T05:10:13.453Z,95783.38
2022-11-21T05:12:58.360Z,95794.09
2022-11-21T05:15:25.243Z,95796.75
2022-11-21T05:17:52.345Z,95794.66
2022-11-21T05:20:18.929Z,95802.56
2022-11-21T05:22:49.834Z,95813.09
2022-11-21T05:25:16.503Z,95811.44
2022-11-21T05:27:42.906Z,95810.06
2022-11-21T05:30:10.293Z,95803.28
2022-11-21T05:32:36.697Z,95809.06
2022-11-21T05:35:03.297Z,95798.97
2022-11-21T05:37:29.610Z,95804.66
2022-11-21T05:39:55.929Z,95804.25
2022-11-21T05:42:42.205Z,95813.47
2022-11-21T05:45:09.178Z,95822.75
2022-11-21T05:47:35.484Z,95822.00
2022-11-21T05:50:01.834Z,95815.69
2022-11-21T05:52:28.611Z,95814.34
2022-11-21T05:54:54.913Z,95817.75
2022-11-21T05:57:21.237Z,95821.31
2022-11-21T05:59:47.617Z,95825.56
2022-11-21T06:02:32.666Z,95819.41
2022-11-21T06:04:58.969Z,95814.31
2022-11-21T06:07:25.349Z,95818.88
2022-11-21T06:09:51.708Z,95820.69
2022-11-21T06:12:22.773Z,95814.47
2022-11-21T06:14:51.702Z,95812.22
2022-11-21T06:17:18.031Z,95804.16
2022-11-21T06:19:44.329Z,95798.97
2022-11-21T06:22:10.641Z,95809.41
2022-11-21T06:24:36.936Z,95804.03
2022-11-21T06:27:03.262Z,95806.63
2022-11-21T06:29:29.563Z,95804.50
2022-11-21T06:31:55.984Z,95812.00
2022-11-21T06:34:22.345Z,95822.44
2022-11-21T06:36:49.394Z,95817.94
2022-11-21T06:39:16.127Z,95807.81
2022-11-21T06:41:42.547Z,95814.06
2022-11-21T06:44:08.944Z,95820.03
2022-11-21T06:46:35.308Z,95820.66
2022-11-21T06:49:01.710Z,95806.97
2022-11-21T06:51:28.069Z,95813.56
2022-11-21T06:53:56.861Z,95808.28
2022-11-21T06:56:24.303Z,95815.81
2022-11-21T06:58:50.629Z,95807.53
2022-11-21T07:01:17.117Z,95799.47
2022-11-21T07:03:43.495Z,95799.34
2022-11-21T07:06:09.861Z,95795.25
2022-11-21T07:08:36.690Z,95794.75
2022-11-21T07:13:51.426Z,95794.06
2022-11-21T07:16:17.741Z,95785.63
2022-11-21T07:18:45.609Z,95784.75
2022-11-21T07:21:11.964Z,95787.19
2022-11-21T07:23:38.354Z,95784.50
2022-11-21T07:26:10.959Z,95779.38
2022-11-21T07:28:37.514Z,95781.56
2022-11-21T07:31:08.498Z,95779.03
2022-11-21T07:33:37.310Z,95772.16
2022-11-21T07:36:04.101Z,95768.31
2022-11-21T07:38:30.402Z,95767.25
2022-11-21T07:40:57.013Z,95763.50
2022-11-21T07:43:23.643Z,95767.13
2022-11-21T07:45:49.978Z,95763.25
2022-11-21T07:48:16.317Z,95752.22
2022-11-21T07:50:42.710Z,95753.38
2022-11-21T07:53:11.669Z,95759.94
2022-11-21T07:55:40.806Z,95758.78
2022-11-21T07:58:12.530Z,95765.22
2022-11-21T08:00:40.639Z,95761.16
2022-11-21T08:03:07.133Z,95752.88
2022-11-21T08:05:44.223Z,95752.38
2022-11-21T08:08:12.518Z,95753.47
2022-11-21T08:10:40.647Z,95760.78
2022-11-21T08:13:07.239Z,95749.41
2022-11-21T08:15:33.553Z,95750.09
2022-11-21T08:18:07.608Z,95753.91
2022-11-21T08:20:33.910Z,95746.88
2022-11-21T08:23:00.265Z,95741.13
2022-11-21T08:25:26.598Z,95743.53
2022-11-21T08:27:56.474Z,95746.41
2022-11-21T08:30:22.880Z,95745.41
2022-11-21T08:32:49.290Z,95747.88
2022-11-21T08:35:15.894Z,95742.72
2022-11-21T08:37:42.237Z,95742.03
2022-11-21T08:40:09.196Z,95730.78
2022-11-21T08:42:35.734Z,95741.06
2022-11-21T08:45:02.043Z,95731.63
2022-11-21T08:47:28.380Z,95718.72
2022-11-21T08:49:54.800Z,95728.09
2022-11-21T08:52:21.263Z,95705.47
2022-11-21T08:54:50.585Z,95720.84
2022-11-21T08:57:16.931Z,95696.69
2022-11-21T08:59:43.245Z,95689.19
2022-11-21T09:02:11.498Z,95690.16
2022-11-21T09:04:38.361Z,95690.41
2022-11-21T09:07:05.161Z,95691.94
2022-11-21T09:09:31.494Z,95682.19
2022-11-21T09:11:57.828Z,95694.28
2022-11-21T09:14:42.903Z,95680.28
2022-11-21T09:17:32.175Z,95682.22
2022-11-21T09:19:59.045Z,95675.63
2022-11-21T09:22:26.216Z,95664.78
2022-11-21T09:24:52.598Z,95669.88
2022-11-21T09:27:18.974Z,95674.94
2022-11-21T09:29:51.082Z,95670.28
2022-11-21T09:32:20.098Z,95658.47
2022-11-21T09:34:46.413Z,95647.88
2022-11-21T09:37:12.787Z,95645.72
2022-11-21T09:39:39.106Z,95634.34
2022-11-21T09:42:46.433Z,95640.19
2022-11-21T09:45:21.486Z,95630.13
2022-11-21T09:47:50.887Z,95631.25
2022-11-21T09:50:32.650Z,95630.59
2022-11-21T09:53:07.606Z,95620.56
2022-11-21T09:55:44.150Z,95605.41
2022-11-21T09:58:16.355Z,95602.00
2022-11-21T10:00:42.814Z,95590.09
2022-11-21T10:03:12.249Z,95585.84
2022-11-21T10:05:47.000Z,95589.94
2022-11-21T10:08:27.354Z,95580.91
2022-11-21T10:11:17.791Z,95578.28
2022-11-21T10:14:14.401Z,95578.78
2022-11-21T10:16:51.725Z,95571.69
2022-11-21T10:19:57.377Z,95575.00
2022-11-21T10:22:44.954Z,95555.81
2022-11-21T10:25:26.841Z,95551.47
2022-11-21T10:28:02.525Z,95543.31
2022-11-21T10:30:29.741Z,95536.81
2022-11-21T10:33:01.700Z,95524.56
2022-11-21T10:35:52.815Z,95512.66
2022-11-21T10:38:24.220Z,95507.91
2022-11-21T10:40:55.055Z,95500.09
2022-11-21T10:43:43.121Z,95496.72
2022-11-21T10:46:09.586Z,95484.22
2022-11-21T10:48:36.374Z,95464.78
2022-11-21T10:51:06.194Z,95456.53
2022-11-21T10:53:51.303Z,95457.66
2022-11-21T10:56:20.372Z,95453.69
2022-11-21T10:58:52.012Z,95441.34
2022-11-21T11:01:21.756Z,95445.75
2022-11-21T11:04:26.236Z,95435.47
2022-11-21T11:06:51.258Z,95425.03
2022-11-21T11:09:36.015Z,95414.97
2022-11-21T11:12:47.544Z,95410.34
2022-11-21T11:15:23.607Z,95395.78
2022-11-21T11:17:56.701Z,95392.00
2022-11-21T11:20:43.761Z,95389.22
2022-11-21T11:23:22.381Z,95385.34
2022-11-21T11:26:00.395Z,95375.56
2022-11-21T11:28:35.153Z,95362.13
2022-11-21T11:31:01.590Z,95358.34
2022-11-21T11:33:34.595Z,95356.72
2022-11-21T11:36:15.480Z,95339.03
2022-11-21T11:38:53.485Z,95344.94
2022-11-21T11:41:27.210Z,95335.75
2022-11-21T11:44:21.262Z,95330.19
2022-11-21T11:47:28.429Z,95319.03
2022-11-21T11:50:13.635Z,95316.59
2022-11-21T11:53:17.405Z,95313.13
2022-11-21T11:55:59.957Z,95311.19
2022-11-21T11:58:40.197Z,95300.88
2022-11-21T12:01:32.440Z,95304.63
2022-11-21T12:04:10.233Z,95291.69
2022-11-21T12:09:56.292Z,95273.66
2022-11-21T12:12:25.895Z,95260.63
2022-11-21T12:15:39.556Z,95255.31
2022-11-21T12:18:20.828Z,95244.56
2022-11-21T12:21:02.519Z,95231.03
2022-11-21T12:23:33.497Z,95218.50
2022-11-21T12:26:26.413Z,95218.28
2022-11-21T12:29:00.060Z,95206.75
2022-11-21T12:31:43.308Z,95198.13
2022-11-21T12:34:34.452Z,95198.00
2022-11-21T12:37:29.150Z,95200.53
2022-11-21T12:40:10.773Z,95188.84
2022-11-21T12:43:04.258Z,95174.78
2022-11-21T12:45:33.825Z,95176.16
2022-11-21T12:48:27.765Z,95165.84
2022-11-21T12:51:34.505Z,95151.56
2022-11-21T12:54:37.771Z,95142.41
2022-11-21T12:57:15.749Z,95128.78
2022-11-21T13:00:08.847Z,95127.25
2022-11-21T13:02:52.110Z,95116.16
2022-11-21T13:05:29.155Z,95115.16
2022-11-21T13:08:21.278Z,95105.75
2022-11-21T13:11:23.229Z,95103.00
2022-11-21T13:13:59.396Z,95102.38
2022-11-21T13:16:37.196Z,95093.69
2022-11-21T13:19:17.153Z,95092.94
2022-11-21T13:21:52.515Z,95089.41
2022-11-21T13:24:43.834Z,95088.47
2022-11-21T13:27:45.835Z,95085.19
2022-11-21T13:30:12.111Z,95066.56
2022-11-21T13:32:50.209Z,95061.34
2022-11-21T13:35:16.488Z,95046.47
2022-11-21T13:37:51.750Z,95047.22
2022-11-21T13:40:27.594Z,95039.31
2022-11-21T13:45:59.408Z,95033.34
2022-11-21T13:48:28.638Z,95030.53
2022-11-21T13:51:23.069Z,95021.59
2022-11-21T13:54:19.453Z,95021.31
2022-11-21T13:57:16.843Z,95010.19
2022-11-21T14:00:01.987Z,95005.38
2022-11-21T14:03:05.781Z,94998.25
2022-11-21T14:05:47.792Z,94994.38
2022-11-21T14:08:21.617Z,94986.81
2022-11-21T14:10:50.771Z,94986.00
2022-11-21T14:13:33.154Z,94965.56
2022-11-21T14:16:29.993Z,94961.88
2022-11-21T14:18:57.605Z,94958.44
2022-11-21T14:21:27.438Z,94955.00
2022-11-21T14:23:57.504Z,94956.19
2022-11-21T14:26:25.451Z,94949.81
2022-11-21T14:28:52.762Z,94934.25
2022-11-21T14:31:19.218Z,94940.53
2022-11-21T14:33:47.710Z,94930.66
2022-11-21T14:36:18.335Z,94919.19
2022-11-21T14:39:35.228Z,94915.84
2022-11-21T14:41:54.333Z,94909.66
2022-11-21T14:44:22.472Z,94910.84
2022-11-21T14:46:50.611Z,94902.59
2022-11-21T14:49:16.983Z,94889.81
2022-11-21T14:51:48.165Z,94899.84
2022-11-21T14:54:20.670Z,94895.44
2022-11-21T14:56:49.616Z,94886.53
2022-11-21T14:59:24.101Z,94888.19
2022-11-21T15:01:56.689Z,94884.47
2022-11-21T15:04:29.662Z,94886.53
2022-11-21T15:06:56.298Z,94888.13
2022-11-21T15:10:26.212Z,94883.41
2022-11-21T15:12:11.508Z,94870.22
2022-11-21T15:15:12.524Z,94867.56
2022-11-21T15:17:47.787Z,94858.09
2022-11-21T15:20:26.975Z,94842.91
2022-11-21T15:22:59.687Z,94835.97
2022-11-21T15:25:47.238Z,94836.25
2022-11-21T15:28:18.198Z,94829.31
2022-11-21T15:30:45.392Z,94823.22
2022-11-21T15:33:16.281Z,94806.00
2022-11-21T15:36:10.982Z,94799.41
2022-11-21T15:38:49.699Z,94797.97
2022-11-21T15:41:15.976Z,94788.38
2022-11-21T15:43:45.272Z,94789.13
2022-11-21T15:46:28.026Z,94788.63
2022-11-21T15:48:57.287Z,94789.34
2022-11-21T15:51:59.552Z,94779.22
2022-11-21T15:54:20.826Z,94780.38
2022-11-21T15:56:47.363Z,94783.47
2022-11-21T15:59:15.406Z,94782.09
2022-11-21T16:01:42.117Z,94775.31
2022-11-21T16:04:11.701Z,94770.44
2022-11-21T16:06:38.086Z,94771.31
2022-11-21T16:09:04.915Z,94766.34
2022-11-21T16:11:33.770Z,94762.81
2022-11-21T16:14:02.669Z,94748.31
2022-11-21T16:16:34.022Z,94740.56
2022-11-21T16:19:00.627Z,94734.75
2022-11-21T16:21:27.215Z,94737.66
2022-11-21T16:23:54.808Z,94729.81
2022-11-21T16:26:22.170Z,94732.50
2022-11-21T16:28:48.479Z,94721.09
2022-11-21T16:31:19.948Z,94716.31
2022-11-21T16:33:47.049Z,94703.28
2022-11-21T16:36:18.717Z,94696.56
2022-11-21T16:38:45.050Z,94695.28
2022-11-21T16:41:11.733Z,94688.44
2022-11-21T16:43:46.439Z,94695.38
2022-11-21T16:46:13.171Z,94695.75
2022-11-21T16:48:39.639Z,94687.88
2022-11-21T16:51:23.861Z,94678.19
2022-11-21T16:53:50.602Z,94687.41
2022-11-21T16:56:17.062Z,94683.78
2022-11-21T16:58:43.390Z,94682.91
2022-11-21T17:01:12.269Z,94673.63
2022-11-21T17:03:40.577Z,94661.31
2022-11-21T17:06:07.834Z,94662.16
2022-11-21T17:08:34.990Z,94662.94
2022-11-21T17:11:12.561Z,94663.41
2022-11-21T17:13:39.105Z,94655.84
2022-11-21T17:16:06.906Z,94648.63
2022-11-21T17:18:33.726Z,94650.72
2022-11-21T17:21:04.517Z,94645.03
2022-11-21T17:23:32.641Z,94648.41
2022-11-21T17:26:10.382Z,94657.91
2022-11-21T17:28:39.771Z,94654.63
2022-11-21T17:31:15.579Z,94662.94
2022-11-21T17:33:43.134Z,94669.56
2022-11-21T17:36:14.735Z,94672.72
2022-11-21T17:38:43.123Z,94671.59
2022-11-21T17:41:14.073Z,94668.88
2022-11-21T17:43:41.013Z,94671.66
2022-11-21T17:46:11.891Z,94668.97
2022-11-21T17:48:38.553Z,94649.66
2022-11-21T17:51:14.050Z,94668.41
2022-11-21T17:53:42.827Z,94698.34
2022-11-21T17:56:18.286Z,94717.66
2022-11-21T17:58:44.930Z,94726.81
2022-11-21T18:01:13.913Z,94715.81
2022-11-21T18:03:40.608Z,94713.25
2022-11-21T18:06:11.748Z,94713.84
2022-11-21T18:08:40.694Z,94698.03
2022-11-21T18:11:09.372Z,94707.47
2022-11-21T18:13:36.393Z,94711.75
2022-11-21T18:16:05.181Z,94706.59
2022-11-21T18:18:32.241Z,94702.19
2022-11-21T18:21:06.095Z,94707.09
2022-11-21T18:23:32.647Z,94693.03
2022-11-21T18:26:04.576Z,94692.25
2022-11-21T18:28:31.857Z,94704.16
2022-11-21T18:31:08.769Z,94695.41
2022-11-21T18:33:36.594Z,94696.19
2022-11-21T18:36:05.346Z,94696.34
2022-11-21T18:38:58.465Z,94698.19
2022-11-21T18:41:26.657Z,94694.47
2022-11-21T18:44:19.993Z,94678.78
2022-11-21T18:46:48.166Z,94674.22
2022-11-21T18:49:14.725Z,94682.16
2022-11-21T18:51:41.050Z,94682.28
2022-11-21T18:54:09.441Z,94675.50
2022-11-21T18:56:37.766Z,94684.81
2022-11-21T18:59:06.189Z,94681.09
2022-11-21T19:01:34.012Z,94689.97
2022-11-21T19:04:00.896Z,94686.81
2022-11-21T19:06:27.762Z,94684.81
2022-11-21T19:08:55.515Z,94674.81
2022-11-21T19:11:24.860Z,94664.97
2022-11-21T19:13:51.982Z,94669.22
2022-11-21T19:16:20.339Z,94664.06
2022-11-21T19:19:05.535Z,94674.28
2022-11-21T19:21:38.250Z,94672.97
2022-11-21T19:24:06.701Z,94681.00
2022-11-21T19:26:33.203Z,94684.53
2022-11-21T19:28:59.548Z,94682.28
2022-11-21T19:31:26.127Z,94683.56
2022-11-21T19:33:52.473Z,94676.06
2022-11-21T19:36:23.606Z,94684.13
2022-11-21T19:38:51.780Z,94685.44
2022-11-21T19:41:21.310Z,94682.28
2022-11-21T19:43:52.014Z,94690.94
2022-11-21T19:46:31.110Z,94684.31
2022-11-21T19:48:58.545Z,94691.06
2022-11-21T19:51:29.906Z,94700.91
2022-11-21T19:53:56.437Z,94704.31
2022-11-21T19:56:25.095Z,94698.13
2022-11-21T19:58:52.667Z,94699.28
2022-11-21T20:01:21.546Z,94704.72
2022-11-21T20:03:50.337Z,94701.38
2022-11-21T20:06:23.021Z,94700.56
2022-11-21T20:08:51.385Z,94702.94
2022-11-21T20:11:17.788Z,94711.03
2022-11-21T20:13:45.393Z,94714.84
2022-11-21T20:16:30.411Z,94709.72
2022-11-21T20:19:02.364Z,94703.78
2022-11-21T20:21:29.295Z,94705.19
2022-11-21T20:23:55.689Z,94701.69
2022-11-21T20:26:23.389Z,94696.41
2022-11-21T20:28:50.702Z,94699.31
2022-11-21T20:31:22.867Z,94702.16
2022-11-21T20:33:52.789Z,94705.16
2022-11-21T20:36:21.491Z,94693.34
2022-11-21T20:38:53.693Z,94705.47
2022-11-21T20:41:21.636Z,94701.44
2022-11-21T20:44:53.236Z,94699.91
2022-11-21T20:46:34.733Z,94699.41
2022-11-21T20:49:01.482Z,94711.50
2022-11-21T20:53:00.988Z,94698.94
2022-11-21T20:54:14.269Z,94701.44
2022-11-21T20:56:44.170Z,94694.72
2022-11-21T20:59:12.085Z,94698.47
2022-11-21T21:01:38.501Z,94693.88
2022-11-21T21:04:04.911Z,94692.56
2022-11-21T21:06:31.769Z,94671.06
2022-11-21T21:08:58.158Z,94682.66
2022-11-21T21:11:50.235Z,94684.50
2022-11-21T21:14:11.337Z,94691.03
2022-11-21T21:16:37.639Z,94693.59
2022-11-21T21:19:04.044Z,94689.38
2022-11-21T21:21:33.202Z,94673.91
2022-11-21T21:24:02.390Z,94675.34
2022-11-21T21:26:34.493Z,94690.03
2022-11-21T21:29:03.985Z,94690.34
2022-11-21T21:31:30.856Z,94687.88
2022-11-21T21:33:58.230Z,94702.97
2022-11-21T21:36:26.162Z,94702.03
2022-11-21T21:38:59.346Z,94694.22
2022-11-21T21:41:27.910Z,94703.66
2022-11-21T21:43:55.333Z,94686.19
2022-11-21T21:46:24.090Z,94685.50
2022-11-21T21:48:54.603Z,94691.16
2022-11-21T21:51:23.849Z,94698.28
2022-11-21T21:53:51.983Z,94700.38
2022-11-21T21:56:20.493Z,94680.03
2022-11-21T21:58:48.571Z,94687.16
2022-11-21T22:01:23.200Z,94688.78
2022-11-21T22:03:53.630Z,94700.16
2022-11-21T22:06:20.066Z,94694.25
2022-11-21T22:08:48.276Z,94689.25
2022-11-21T22:11:23.501Z,94690.81
2022-11-21T22:13:58.490Z,94685.09
2022-11-21T22:16:25.275Z,94686.63
2022-11-21T22:18:52.065Z,94686.34
2022-11-21T22:21:19.969Z,94684.72
2022-11-21T22:24:09.819Z,94691.06
2022-11-21T22:26:33.826Z,94691.88
2022-11-21T22:29:00.172Z,94691.81
2022-11-21T22:31:30.598Z,94697.34
2022-11-21T22:33:57.492Z,94697.53
2022-11-21T22:36:23.905Z,94704.56
2022-11-21T22:38:53.616Z,94689.41
2022-11-21T22:41:25.587Z,94690.97
2022-11-21T22:43:54.602Z,94688.19
2022-11-21T22:46:22.007Z,94689.50
2022-11-21T22:48:48.803Z,94687.44
2022-11-21T22:51:19.413Z,94693.06
2022-11-21T22:53:49.512Z,94695.97
2022-11-21T22:56:18.486Z,94695.81
2022-11-21T22:58:45.558Z,94696.28
2022-11-21T23:01:18.504Z,94691.03
2022-11-21T23:03:45.260Z,94683.59
2022-11-21T23:06:16.858Z,94680.72
2022-11-21T23:08:44.125Z,94671.34
2022-11-21T23:11:13.258Z,94670.97
2022-11-21T23:13:42.511Z,94671.97
2022-11-21T23:16:09.576Z,94676.97
2022-11-21T23:18:36.557Z,94678.13
2022-11-21T23:21:04.571Z,94674.31
2022-11-21T23:23:31.269Z,94672.03
2022-11-21T23:25:57.733Z,94676.94
2022-11-21T23:28:24.091Z,94679.03
2022-11-21T23:30:50.693Z,94670.25
2022-11-21T23:33:17.309Z,94664.88
2022-11-21T23:35:44.574Z,94673.09
2022-11-21T23:38:11.541Z,94679.88
2022-11-21T23:40:37.878Z,94677.25
2022-11-21T23:43:04.272Z,94675.03
2022-11-21T23:45:30.827Z,94681.84
2022-11-21T23:47:57.131Z,94675.97
2022-11-21T23:50:23.466Z,94676.94
2022-11-21T23:52:49.928Z,94672.94
2022-11-21T23:55:17.089Z,94672.31
2022-11-21T23:57:48.159Z,94672.72
